Time;durP1;ratioP1;P1;durP2;ratioP2;P2;SDS_P1;SDS_P2;PMS_P1;PMS_P2;Temp;Humidity;BMP_temperature;BMP_pressure;BME280_temperature;BME280_humidity;BME280_pressure;Samples;Min_cycle;Max_cycle;Signal;HPM_P1;HPM_P2
2022/12/11 00:02:10;;;;;;;10.05;1.98;;;;;;;4.96;100.00;100618.56;5073601;28;20074;-85
2022/12/11 00:04:37;;;;;;;7.55;1.80;;;;;;;4.88;100.00;100621.28;5073708;28;20076;-86
2022/12/11 00:07:04;;;;;;;7.13;1.85;;;;;;;5.09;100.00;100643.41;5073103;28;20110;-85
2022/12/11 00:09:31;;;;;;;13.45;2.30;;;;;;;5.39;100.00;100666.31;5076531;28;20048;-85
2022/12/11 00:11:58;;;;;;;13.63;3.88;;;;;;;5.50;100.00;100669.56;5089070;28;20482;-85
2022/12/11 00:14:24;;;;;;;14.13;3.15;;;;;;;5.37;100.00;100619.59;5084724;28;20044;-86
2022/12/11 00:16:51;;;;;;;6.05;1.60;;;;;;;5.52;100.00;100644.41;5063551;28;20044;-85
2022/12/11 00:19:18;;;;;;;8.88;2.10;;;;;;;5.50;100.00;100628.84;5073220;28;20091;-84
2022/12/11 00:21:45;;;;;;;5.25;1.80;;;;;;;5.40;100.00;100631.66;5073665;28;20048;-85
2022/12/11 00:24:11;;;;;;;7.65;1.73;;;;;;;5.52;100.00;100678.19;5073507;28;20040;-85
2022/12/11 00:26:38;;;;;;;7.28;1.50;;;;;;;5.56;100.00;100674.66;5074582;28;20048;-85
2022/12/11 00:29:07;;;;;;;6.78;1.90;;;;;;;5.36;100.00;100656.81;5072139;28;20049;-85
2022/12/11 00:31:34;;;;;;;5.25;1.63;;;;;;;5.38;100.00;100678.41;5073227;28;20499;-85
2022/12/11 00:34:01;;;;;;;6.85;1.38;;;;;;;5.22;100.00;100628.50;5088808;28;20474;-85
2022/12/11 00:36:28;;;;;;;7.78;3.00;;;;;;;5.11;100.00;100618.28;5073202;28;20429;-85
2022/12/11 00:38:55;;;;;;;14.23;3.00;;;;;;;5.33;100.00;100646.50;5071578;28;20064;-85
2022/12/11 00:41:21;;;;;;;5.50;1.95;;;;;;;5.36;100.00;100655.97;5060194;28;20101;-85
2022/12/11 00:43:48;;;;;;;8.20;1.63;;;;;;;5.24;100.00;100655.31;5073056;28;20044;-85
2022/12/11 00:46:15;;;;;;;6.82;2.10;;;;;;;5.07;100.00;100662.50;5074444;28;20433;-85
2022/12/11 00:48:42;;;;;;;12.23;1.98;;;;;;;4.76;100.00;100608.50;5087805;28;20659;-85
2022/12/11 00:51:09;;;;;;;7.57;2.00;;;;;;;4.71;100.00;100655.25;5088667;28;20044;-85
2022/12/11 00:53:37;;;;;;;8.70;2.70;;;;;;;4.90;100.00;100662.75;5071688;28;20372;-85
2022/12/11 00:56:16;;;;;;;12.88;4.60;;;;;;;4.55;100.00;100607.97;5066738;28;20044;-84
2022/12/11 00:58:45;;;;;;;4.70;1.58;;;;;;;4.48;100.00;100614.13;5071549;28;20048;-84
2022/12/11 01:01:15;;;;;;;6.13;1.95;;;;;;;4.62;100.00;100619.09;5066712;28;20053;-84
2022/12/11 01:03:42;;;;;;;5.80;1.60;;;;;;;4.82;100.00;100641.28;5086790;28;20694;-84
2022/12/11 01:06:14;;;;;;;7.55;1.70;;;;;;;4.66;100.00;100646.69;5064184;28;20041;-84
2022/12/11 01:08:41;;;;;;;7.05;2.08;;;;;;;4.79;100.00;100651.69;5068948;28;20057;-84
2022/12/11 01:11:11;;;;;;;8.35;1.90;;;;;;;4.69;100.00;100630.22;5080073;28;20478;-84
2022/12/11 01:13:39;;;;;;;5.60;1.85;;;;;;;4.73;100.00;100650.06;5064182;28;20056;-84
2022/12/11 01:16:14;;;;;;;9.40;1.92;;;;;;;4.75;100.00;100656.06;5066737;28;20041;-84
2022/12/11 01:18:41;;;;;;;5.90;1.60;;;;;;;4.52;100.00;100607.16;5066180;28;20052;-84
2022/12/11 01:21:11;;;;;;;5.45;1.80;;;;;;;4.64;100.00;100652.75;5071119;28;20048;-84
2022/12/11 01:23:38;;;;;;;6.05;1.80;;;;;;;4.42;100.00;100640.09;5066382;28;20438;-84
2022/12/11 01:26:13;;;;;;;9.63;2.20;;;;;;;4.51;100.00;100650.34;5065729;28;20441;-84
2022/12/11 01:28:44;;;;;;;5.30;1.75;;;;;;;4.55;100.00;100630.41;5078389;28;20056;-84
2022/12/11 01:31:12;;;;;;;8.05;2.00;;;;;;;4.54;100.00;100652.91;5066050;28;20052;-85
2022/12/11 01:33:39;;;;;;;4.85;1.67;;;;;;;4.11;100.00;100598.22;5072665;28;20475;-85
2022/12/11 01:36:18;;;;;;;9.50;1.83;;;;;;;4.53;100.00;100627.00;5072324;28;20049;-84
2022/12/11 01:38:47;;;;;;;6.70;2.63;;;;;;;4.08;100.00;100595.66;5071208;28;20117;-84
2022/12/11 01:41:14;;;;;;;9.63;2.15;;;;;;;4.06;100.00;100584.47;5057865;28;20060;-85
2022/12/11 01:44:07;;;;;;;6.45;1.88;;;;;;;4.49;100.00;100653.84;5072010;28;20546;-85
2022/12/11 01:46:35;;;;;;;5.28;1.92;;;;;;;4.52;100.00;100652.06;5072038;28;20044;-85
2022/12/11 01:49:06;;;;;;;3.80;1.52;;;;;;;4.31;100.00;100610.91;5069779;28;20105;-84
2022/12/11 01:51:42;;;;;;;10.32;3.10;;;;;;;4.28;100.00;100637.69;5080262;28;20548;-84
2022/12/11 01:54:12;;;;;;;8.23;2.30;;;;;;;4.19;100.00;100649.03;5080743;28;20755;-84
2022/12/11 01:56:42;;;;;;;8.65;2.72;;;;;;;4.41;100.00;100661.75;5086473;28;20117;-84
2022/12/11 01:59:10;;;;;;;6.53;2.17;;;;;;;4.49;100.00;100649.50;5070747;28;20060;-84
2022/12/11 02:01:43;;;;;;;12.82;2.05;;;;;;;4.40;100.00;100638.44;5071971;28;20052;-85
2022/12/11 02:04:12;;;;;;;3.90;1.60;;;;;;;4.26;100.00;100621.31;5067451;28;20090;-84
2022/12/11 02:06:43;;;;;;;9.55;2.25;;;;;;;4.10;100.00;100607.69;5071019;28;20048;-84
2022/12/11 02:09:31;;;;;;;7.32;1.80;;;;;;;4.22;100.00;100624.84;5062935;28;20527;-84
2022/12/11 02:12:05;;;;;;;10.02;2.50;;;;;;;4.63;100.00;100669.22;5071058;28;20048;-85
2022/12/11 02:14:54;;;;;;;9.38;2.20;;;;;;;4.54;100.00;100671.06;5086652;28;20474;-83
2022/12/11 02:17:25;;;;;;;7.10;1.95;;;;;;;4.50;100.00;100669.41;5067192;28;20044;-83
2022/12/11 02:19:54;;;;;;;4.80;1.92;;;;;;;4.61;100.00;100668.41;5087230;28;20044;-83
2022/12/11 02:22:43;;;;;;;8.20;1.90;;;;;;;4.64;100.00;100671.81;5069945;28;20835;-83
2022/12/11 02:25:21;;;;;;;5.47;1.70;;;;;;;4.57;100.00;100664.97;5086387;28;20135;-83
2022/12/11 02:28:03;;;;;;;8.48;1.70;;;;;;;4.63;100.00;100667.47;5066611;28;20048;-84
2022/12/11 02:30:35;;;;;;;5.57;1.73;;;;;;;4.52;100.00;100657.25;5071633;28;20052;-83
2022/12/11 02:33:02;;;;;;;14.60;2.30;;;;;;;4.44;100.00;100627.97;5070501;28;20490;-84
2022/12/11 02:35:44;;;;;;;5.55;1.60;;;;;;;4.59;100.00;100650.25;5057403;28;20819;-83
2022/12/11 02:38:20;;;;;;;6.88;1.67;;;;;;;4.73;100.00;100661.28;5070517;28;20486;-84
2022/12/11 02:40:50;;;;;;;6.22;1.60;;;;;;;4.56;100.00;100650.28;5069002;28;20395;-84
2022/12/11 02:43:19;;;;;;;7.40;1.83;;;;;;;4.58;100.00;100645.94;5059335;28;20455;-83
2022/12/11 02:45:47;;;;;;;8.18;1.88;;;;;;;4.64;100.00;100645.88;5070330;28;20087;-82
2022/12/11 02:48:15;;;;;;;6.68;1.65;;;;;;;4.52;100.00;100659.84;5068232;28;20128;-82
2022/12/11 02:50:47;;;;;;;7.70;1.85;;;;;;;4.48;100.00;100658.19;5071380;28;20052;-82
2022/12/11 02:53:18;;;;;;;7.72;1.98;;;;;;;4.26;100.00;100631.69;5071254;28;20563;-82
2022/12/11 02:55:48;;;;;;;8.82;1.90;;;;;;;4.64;100.00;100668.31;5056852;28;20057;-82
2022/12/11 02:58:29;;;;;;;8.43;1.70;;;;;;;4.67;100.00;100650.97;5070170;28;20044;-84
2022/12/11 03:00:56;;;;;;;4.72;1.58;;;;;;;4.64;100.00;100639.78;5070938;28;20082;-84
2022/12/11 03:03:23;;;;;;;6.90;2.28;;;;;;;4.57;100.00;100668.44;5071119;28;20084;-84
2022/12/11 03:05:52;;;;;;;9.30;2.25;;;;;;;4.27;100.00;100630.81;5070594;28;20048;-84
2022/12/11 03:08:18;;;;;;;10.25;1.90;;;;;;;4.59;100.00;100652.00;5055705;28;20045;-84
2022/12/11 03:10:45;;;;;;;8.10;1.58;;;;;;;4.55;100.00;100654.63;5065820;28;20081;-84
2022/12/11 03:13:17;;;;;;;7.75;2.72;;;;;;;4.49;100.00;100635.69;5083376;28;20049;-84
2022/12/11 03:15:46;;;;;;;10.43;1.75;;;;;;;4.57;100.00;100665.84;5070763;28;20045;-84
2022/12/11 03:18:35;;;;;;;6.72;1.60;;;;;;;4.42;100.00;100629.75;5085879;28;20048;-84
2022/12/11 03:21:10;;;;;;;7.13;1.73;;;;;;;4.29;100.00;100646.34;5070695;28;20044;-84
2022/12/11 03:23:53;;;;;;;7.18;2.13;;;;;;;4.33;100.00;100641.09;5069845;28;20049;-85
2022/12/11 03:26:22;;;;;;;8.75;1.88;;;;;;;4.08;100.00;100631.94;5076554;28;20103;-84
2022/12/11 03:28:57;;;;;;;10.75;2.13;;;;;;;4.31;100.00;100673.94;5065974;28;20048;-84
2022/12/11 03:31:37;;;;;;;7.60;1.77;;;;;;;3.95;100.00;100650.22;5086985;28;20123;-85
2022/12/11 03:34:15;;;;;;;10.48;2.10;;;;;;;4.10;100.00;100674.22;5073490;28;20055;-84
2022/12/11 03:36:43;;;;;;;12.80;2.28;;;;;;;4.04;100.00;100674.28;5070382;28;20040;-84
2022/12/11 03:39:17;;;;;;;6.95;2.00;;;;;;;4.01;100.00;100654.47;5073160;28;20456;-84
2022/12/11 03:41:47;;;;;;;8.70;2.25;;;;;;;4.06;100.00;100664.78;5073842;28;20059;-85
2022/12/11 03:44:15;;;;;;;9.27;2.33;;;;;;;3.83;100.00;100657.28;5074391;28;20102;-85
2022/12/11 03:46:44;;;;;;;10.98;2.42;;;;;;;3.63;100.00;100642.81;5079218;28;20051;-85
2022/12/11 03:49:19;;;;;;;6.63;1.88;;;;;;;3.82;100.00;100646.03;5058487;28;20056;-84
2022/12/11 03:51:49;;;;;;;10.68;1.95;;;;;;;3.85;100.00;100645.16;5069705;28;20053;-84
2022/12/11 03:54:16;;;;;;;7.20;1.98;;;;;;;3.71;100.00;100628.03;5069273;28;20470;-84
2022/12/11 03:56:45;;;;;;;13.38;1.98;;;;;;;3.81;100.00;100652.09;5064834;28;20045;-84
2022/12/11 03:59:12;;;;;;;7.03;1.75;;;;;;;3.63;100.00;100621.22;5073454;28;20052;-84
2022/12/11 04:01:39;;;;;;;10.40;3.17;;;;;;;3.49;100.00;100639.47;5074164;28;20048;-85
2022/12/11 04:04:05;;;;;;;9.93;1.98;;;;;;;3.81;100.00;100657.28;5089952;28;20440;-85
2022/12/11 04:06:32;;;;;;;6.70;2.15;;;;;;;3.54;100.00;100611.81;5054007;28;20178;-85
2022/12/11 04:08:59;;;;;;;9.05;1.90;;;;;;;3.29;100.00;100612.06;5069946;28;20395;-85
2022/12/11 04:11:34;;;;;;;5.55;1.67;;;;;;;3.61;100.00;100639.34;5070025;28;20049;-84
2022/12/11 04:16:55;;;;;;;;;;;;;;;3.62;100.00;100651.44;5073442;28;20907;-84
2022/12/11 04:25:01;;;;;;;9.73;2.13;;;;;;;3.36;100.00;100616.31;5060132;28;20048;-85
2022/12/11 04:30:20;;;;;;;11.70;2.00;;;;;;;3.08;100.00;100613.13;5073514;28;20460;-85
2022/12/11 04:32:47;;;;;;;8.20;1.98;;;;;;;3.30;100.00;100633.63;5073686;28;20094;-84
2022/12/11 04:35:14;;;;;;;5.30;1.70;;;;;;;3.27;100.00;100611.22;5073544;28;20048;-84
2022/12/11 04:37:41;;;;;;;7.82;1.73;;;;;;;3.29;100.00;100612.06;5072894;28;20078;-84
2022/12/11 04:40:12;;;;;;;11.10;2.25;;;;;;;3.17;100.00;100618.22;5073876;28;20048;-84
2022/12/11 04:42:40;;;;;;;14.73;2.20;;;;;;;3.14;100.00;100622.56;5072477;28;20048;-84
2022/12/11 04:45:08;;;;;;;8.90;2.10;;;;;;;3.01;100.00;100619.22;5078939;28;20053;-84
2022/12/11 04:47:36;;;;;;;7.78;1.88;;;;;;;2.88;100.00;100605.53;5065999;28;20047;-84
2022/12/11 04:50:06;;;;;;;8.82;2.10;;;;;;;2.84;100.00;100590.91;5072446;28;20399;-84
2022/12/11 04:52:33;;;;;;;7.68;2.25;;;;;;;2.49;100.00;100580.84;5072601;28;20048;-84
2022/12/11 04:54:59;;;;;;;7.45;2.20;;;;;;;2.93;100.00;100619.28;5072298;28;20053;-84
2022/12/11 04:57:26;;;;;;;9.90;2.00;;;;;;;2.70;100.00;100577.25;5063133;28;20070;-84
2022/12/11 04:59:53;;;;;;;6.15;1.95;;;;;;;2.42;100.00;100544.69;5070975;28;20063;-85
2022/12/11 05:02:20;;;;;;;8.00;1.83;;;;;;;2.95;100.00;100617.53;5071286;28;20048;-85
2022/12/11 05:04:47;;;;;;;9.93;2.55;;;;;;;2.34;100.00;100536.16;5071978;28;20199;-84
2022/12/11 05:07:13;;;;;;;5.60;1.70;;;;;;;2.90;100.00;100621.03;5072122;28;20535;-84
2022/12/11 05:09:40;;;;;;;14.20;2.70;;;;;;;2.90;100.00;100611.53;5072147;28;20086;-85
2022/12/11 05:12:07;;;;;;;6.15;2.50;;;;;;;2.57;100.00;100542.88;5071553;28;20712;-84
2022/12/11 05:14:33;;;;;;;8.45;2.17;;;;;;;2.89;100.00;100596.06;5072044;28;20048;-85
2022/12/11 05:17:00;;;;;;;9.00;2.20;;;;;;;2.53;100.00;100549.78;5061763;28;20074;-84
2022/12/11 05:19:27;;;;;;;13.50;2.40;;;;;;;2.75;100.00;100593.59;5057525;28;20395;-85
2022/12/11 05:21:53;;;;;;;11.25;2.33;;;;;;;2.93;100.00;100585.66;5071539;28;20052;-84
2022/12/11 05:24:20;;;;;;;6.65;1.90;;;;;;;2.92;100.00;100588.25;5087520;28;20078;-84
2022/12/11 05:26:47;;;;;;;9.15;2.15;;;;;;;3.05;100.00;100602.81;5070158;28;20676;-84
2022/12/11 05:29:13;;;;;;;5.72;1.77;;;;;;;2.74;100.00;100550.47;5069296;28;20098;-85
2022/12/11 05:31:40;;;;;;;9.45;2.10;;;;;;;2.68;100.00;100545.38;5075019;28;20104;-84
2022/12/11 05:34:07;;;;;;;8.70;1.85;;;;;;;3.06;100.00;100590.72;5071137;28;20055;-85
2022/12/11 05:36:34;;;;;;;8.00;1.88;;;;;;;2.87;100.00;100597.78;5071073;28;20551;-84
2022/12/11 05:39:02;;;;;;;11.15;2.50;;;;;;;2.84;100.00;100594.34;5070608;28;20048;-84
2022/12/11 05:41:31;;;;;;;4.95;1.63;;;;;;;2.89;100.00;100609.84;5071751;28;20044;-85
2022/12/11 05:43:58;;;;;;;7.93;2.25;;;;;;;2.84;100.00;100598.69;5072163;28;20045;-85
2022/12/11 05:46:27;;;;;;;8.13;2.28;;;;;;;2.97;100.00;100607.19;5056872;28;20639;-84
2022/12/11 05:48:58;;;;;;;8.15;2.17;;;;;;;2.97;100.00;100599.41;5069712;28;20508;-84
2022/12/11 05:51:26;;;;;;;5.45;2.10;;;;;;;2.84;100.00;100604.69;5087422;28;20495;-85
2022/12/11 05:53:54;;;;;;;6.30;1.45;;;;;;;2.47;100.00;100529.16;5070334;28;20086;-83
2022/12/11 05:56:26;;;;;;;11.15;2.08;;;;;;;2.98;100.00;100604.59;5070386;28;21418;-83
2022/12/11 05:58:54;;;;;;;4.80;1.83;;;;;;;2.83;100.00;100568.50;5083721;28;20094;-84
2022/12/11 06:01:25;;;;;;;7.57;2.45;;;;;;;3.08;100.00;100609.66;5071982;28;20052;-84
2022/12/11 06:03:53;;;;;;;6.72;1.75;;;;;;;2.97;100.00;100602.00;5064852;28;20060;-84
2022/12/11 06:06:20;;;;;;;9.05;2.25;;;;;;;2.67;100.00;100560.00;5063292;28;20053;-84
2022/12/11 06:08:51;;;;;;;11.43;2.30;;;;;;;2.62;100.00;100577.28;5065420;28;20604;-84
2022/12/11 06:11:19;;;;;;;6.63;1.73;;;;;;;2.76;100.00;100580.66;5057002;28;20117;-84
2022/12/11 06:13:50;;;;;;;8.68;1.73;;;;;;;2.86;100.00;100568.47;5064633;28;20094;-84
2022/12/11 06:16:17;;;;;;;5.70;1.60;;;;;;;2.84;100.00;100572.81;5066937;28;20060;-84
2022/12/11 06:18:44;;;;;;;5.50;1.67;;;;;;;2.95;100.00;100576.16;5063069;28;20390;-84
2022/12/11 06:21:21;;;;;;;7.53;1.73;;;;;;;2.82;100.00;100566.81;5062323;28;20398;-83
2022/12/11 06:23:50;;;;;;;4.57;1.42;;;;;;;3.04;100.00;100567.47;5066692;28;20117;-84
2022/12/11 06:26:18;;;;;;;5.22;1.52;;;;;;;2.89;100.00;100552.09;5069306;28;20109;-84
2022/12/11 06:28:45;;;;;;;5.78;1.40;;;;;;;2.95;100.00;100573.56;5067351;28;20056;-84
2022/12/11 06:31:12;;;;;;;7.45;1.98;;;;;;;2.91;100.00;100566.72;5077773;28;20052;-84
2022/12/11 06:33:41;;;;;;;9.52;1.90;;;;;;;2.99;100.00;100576.97;5065244;28;20582;-83
2022/12/11 06:36:12;;;;;;;4.88;1.50;;;;;;;2.94;100.00;100571.00;5065739;28;20052;-84
2022/12/11 06:38:38;;;;;;;6.60;2.10;;;;;;;2.60;100.00;100537.66;5065324;28;20049;-84
2022/12/11 06:41:07;;;;;;;9.65;1.90;;;;;;;2.74;100.00;100556.50;5067734;28;20045;-84
2022/12/11 06:43:35;;;;;;;7.15;1.60;;;;;;;2.84;100.00;100573.66;5061371;28;21505;-83
2022/12/11 06:46:07;;;;;;;6.07;1.63;;;;;;;2.75;100.00;100573.75;5064350;28;21165;-83
2022/12/11 06:48:34;;;;;;;8.65;1.63;;;;;;;2.49;100.00;100526.56;5066380;28;20052;-83
2022/12/11 06:51:05;;;;;;;6.88;1.83;;;;;;;2.69;100.00;100560.00;5063470;28;20440;-83
2022/12/11 06:53:32;;;;;;;6.15;1.98;;;;;;;2.44;100.00;100529.16;5064741;28;21191;-84
2022/12/11 06:56:11;;;;;;;7.50;1.92;;;;;;;2.42;100.00;100526.59;5063845;28;20056;-84
2022/12/11 06:58:42;;;;;;;6.63;1.80;;;;;;;2.66;100.00;100563.47;5078744;28;20045;-84
2022/12/11 07:01:25;;;;;;;12.32;2.22;;;;;;;2.59;100.00;100551.47;5079551;28;20056;-85
2022/12/11 07:04:12;;;;;;;9.05;2.13;;;;;;;2.59;100.00;100562.66;4901609;28;20720;-90
2022/12/11 07:07:01;;;;;;;5.38;1.90;;;;;;;2.72;100.00;100542.75;5039928;28;20052;-90
2022/12/11 07:09:28;;;;;;;10.15;1.77;;;;;;;2.62;100.00;100517.81;5079739;28;20843;-90
2022/12/11 07:11:55;;;;;;;8.18;1.92;;;;;;;2.55;100.00;100521.34;5092250;28;20101;-90
2022/12/11 07:14:21;;;;;;;9.10;2.03;;;;;;;2.83;100.00;100550.41;5072383;28;20444;-90
2022/12/11 07:16:48;;;;;;;4.72;1.70;;;;;;;2.74;100.00;100540.13;5072283;28;20056;-90
2022/12/11 07:19:15;;;;;;;9.05;1.80;;;;;;;2.74;100.00;100535.81;5072869;28;20044;-90
2022/12/11 07:21:42;;;;;;;5.18;1.92;;;;;;;2.71;100.00;100512.59;5065841;28;20064;-90
2022/12/11 07:24:09;;;;;;;6.60;1.63;;;;;;;3.02;100.00;100556.28;5093754;28;20052;-90
2022/12/11 07:26:35;;;;;;;10.50;1.90;;;;;;;2.87;100.00;100565.03;5076124;28;20478;-91
2022/12/11 07:29:02;;;;;;;9.57;1.83;;;;;;;2.47;100.00;100501.56;5058558;28;20115;-90
2022/12/11 07:31:29;;;;;;;10.82;2.53;;;;;;;2.77;100.00;100533.22;5057237;28;20053;-90
2022/12/11 07:34:02;;;;;;;10.73;2.15;;;;;;;2.64;100.00;100498.88;5058489;28;20520;-90
2022/12/11 07:36:32;;;;;;;7.40;1.80;;;;;;;2.91;100.00;100545.19;5059032;28;20045;-90
2022/12/11 07:39:00;;;;;;;9.93;2.13;;;;;;;2.58;100.00;100534.25;5077299;28;20689;-90
2022/12/11 07:41:27;;;;;;;5.90;1.75;;;;;;;2.67;100.00;100570.34;5077194;28;20387;-92
2022/12/11 07:43:54;;;;;;;6.05;1.52;;;;;;;2.29;100.00;100496.56;5078082;28;20150;-90
2022/12/11 07:46:24;;;;;;;23.38;3.30;;;;;;;2.33;100.00;100525.81;5089077;28;20494;-91
2022/12/11 07:48:50;;;;;;;10.15;1.83;;;;;;;2.08;100.00;100476.91;5070596;28;20106;-91
2022/12/11 07:51:17;;;;;;;7.18;1.80;;;;;;;2.73;100.00;100567.72;5086270;28;20053;-91
2022/12/11 07:53:48;;;;;;;6.32;1.90;;;;;;;2.47;100.00;100553.25;5073103;28;20040;-91
2022/12/11 07:56:16;;;;;;;11.20;2.53;;;;;;;2.53;100.00;100548.91;5088789;28;20056;-91
2022/12/11 07:58:43;;;;;;;6.50;1.85;;;;;;;2.31;100.00;100535.31;5084533;28;20083;-91
2022/12/11 08:01:16;;;;;;;6.18;1.83;;;;;;;2.41;100.00;100558.50;5065089;28;20052;-92
2022/12/11 08:03:43;;;;;;;6.03;1.92;;;;;;;2.44;100.00;100548.16;5077533;28;20126;-92
2022/12/11 08:06:10;;;;;;;10.85;2.92;;;;;;;2.24;100.00;100545.66;5068613;28;20044;-92
2022/12/11 08:08:38;;;;;;;7.63;2.15;;;;;;;2.30;100.00;100534.44;5066531;28;20041;-91
2022/12/11 08:11:06;;;;;;;6.90;1.73;;;;;;;2.13;100.00;100524.22;5065959;28;20102;-91
2022/12/11 08:13:33;;;;;;;9.27;1.77;;;;;;;2.09;100.00;100527.72;5067871;28;20037;-91
2022/12/11 08:16:09;;;;;;;9.98;2.40;;;;;;;2.38;100.00;100532.66;5067059;28;20053;-92
2022/12/11 08:18:36;;;;;;;6.85;1.70;;;;;;;2.23;100.00;100519.84;5081237;28;20040;-92
2022/12/11 08:21:08;;;;;;;7.75;2.05;;;;;;;2.31;100.00;100543.06;5073098;28;20101;-91
2022/12/11 08:23:35;;;;;;;6.95;1.83;;;;;;;2.26;100.00;100504.31;5075610;28;20106;-93
2022/12/11 08:26:07;;;;;;;5.80;2.03;;;;;;;2.29;100.00;100535.31;5070976;28;20049;-93
2022/12/11 08:28:34;;;;;;;5.63;2.55;;;;;;;2.28;100.00;100541.34;5089741;28;20045;-93
2022/12/11 08:31:06;;;;;;;10.02;2.67;;;;;;;2.07;100.00;100501.88;5071654;28;20105;-93
2022/12/11 08:33:35;;;;;;;14.60;2.03;;;;;;;1.97;100.00;100466.66;5074021;28;20059;-93
2022/12/11 08:36:07;;;;;;;8.45;1.80;;;;;;;2.45;100.00;100531.75;5070158;28;20435;-92
2022/12/11 08:38:34;;;;;;;7.35;2.05;;;;;;;2.55;100.00;100539.44;5072243;28;20048;-90
2022/12/11 08:41:13;;;;;;;8.95;2.05;;;;;;;2.42;100.00;100523.16;5073319;28;20376;-92
2022/12/11 08:43:40;;;;;;;7.28;1.83;;;;;;;2.35;100.00;100530.09;5089820;28;20122;-92
2022/12/11 08:46:09;;;;;;;6.82;1.60;;;;;;;2.32;100.00;100524.97;5085211;28;20059;-91
2022/12/11 08:48:39;;;;;;;5.13;1.80;;;;;;;2.35;100.00;100513.75;5087114;28;20048;-90
2022/12/11 08:51:09;;;;;;;5.90;1.60;;;;;;;2.19;100.00;100493.19;5082810;28;20060;-91
2022/12/11 08:53:38;;;;;;;7.28;2.00;;;;;;;2.21;100.00;100491.47;5086585;28;20062;-90
2022/12/11 08:56:11;;;;;;;9.88;1.50;;;;;;;2.40;100.00;100532.66;5081696;28;20044;-91
2022/12/11 08:58:39;;;;;;;6.63;1.65;;;;;;;2.46;100.00;100532.59;5084993;28;20049;-91
2022/12/11 09:01:23;;;;;;;3.20;1.42;;;;;;;2.32;100.00;100529.25;5102671;28;20078;-91
2022/12/11 09:03:55;;;;;;;3.25;1.50;;;;;;;2.16;100.00;100484.59;5073797;28;20060;-90
2022/12/11 09:06:26;;;;;;;5.40;1.40;;;;;;;2.30;100.00;100492.25;5085013;28;20068;-92
2022/12/11 09:09:09;;;;;;;8.05;1.73;;;;;;;2.33;100.00;100513.75;5090684;28;20108;-90
2022/12/11 09:11:49;;;;;;;6.47;1.80;;;;;;;2.40;100.00;100522.31;5070590;28;20052;-92
2022/12/11 09:14:30;;;;;;;2.55;1.40;;;;;;;2.10;100.00;100488.09;5091021;28;20103;-93
2022/12/11 09:17:11;;;;;;;5.47;1.40;;;;;;;2.37;100.00;100538.69;5095933;28;20036;-93
2022/12/11 09:19:55;;;;;;;10.18;2.20;;;;;;;1.13;100.00;100360.47;5094271;28;20028;-94
2022/12/11 09:22:36;;;;;;;5.72;1.73;;;;;;;1.31;100.00;100382.75;5095720;28;20037;-95
2022/12/11 09:25:19;;;;;;;6.20;1.92;;;;;;;1.66;100.00;100446.16;5094892;28;20036;-93
2022/12/11 09:28:06;;;;;;;6.03;2.08;;;;;;;1.78;100.00;100434.06;5111676;28;20052;-95
2022/12/11 09:30:47;;;;;;;8.43;2.72;;;;;;;1.26;100.00;100373.31;5091534;28;20113;-94
2022/12/11 09:33:30;;;;;;;7.63;2.20;;;;;;;1.28;100.00;100369.00;5088447;28;20055;-94
2022/12/11 09:36:05;;;;;;;8.55;2.40;;;;;;;1.62;100.00;100444.47;5093667;28;20276;-94
2022/12/11 09:38:47;;;;;;;5.47;2.43;;;;;;;1.74;100.00;100424.66;5096385;28;20040;-95
2022/12/11 09:42:03;;;;;;;5.85;1.73;;;;;;;2.62;100.00;100546.25;5094868;28;20052;-93
2022/12/11 09:44:54;;;;;;;3.20;1.30;;;;;;;2.64;100.00;100547.97;5094495;28;20052;-93
2022/12/11 09:47:42;;;;;;;6.30;1.60;;;;;;;2.49;100.00;100514.50;5094621;28;20053;-95
2022/12/11 09:50:33;;;;;;;9.80;3.08;;;;;;;2.49;100.00;100542.06;5093909;28;20048;-93
2022/12/11 09:53:29;;;;;;;5.40;2.03;;;;;;;2.46;100.00;100510.22;5093791;28;20049;-96
2022/12/11 09:56:18;;;;;;;5.60;1.77;;;;;;;2.66;100.00;100533.31;5095439;28;20040;-95
2022/12/11 09:59:02;;;;;;;5.95;1.52;;;;;;;2.72;100.00;100531.53;5094889;28;20037;-95
2022/12/11 10:01:45;;;;;;;;;;;;;;;2.89;100.00;100540.00;5094138;28;20052;-94
2022/12/11 10:05:20;;;;;;;4.97;1.60;;;;;;;2.33;100.00;100444.00;5093979;28;19951;-93
2022/12/11 10:08:16;;;;;;;8.00;1.90;;;;;;;3.08;100.00;100540.72;5109458;28;20035;-95
2022/12/11 10:11:33;;;;;;;4.97;1.50;;;;;;;2.53;100.00;100440.38;5095111;28;20028;-95
2022/12/11 10:14:44;;;;;;;4.30;1.42;;;;;;;2.92;100.00;100496.03;5096346;28;20028;-96
2022/12/11 10:17:38;;;;;;;7.35;1.80;;;;;;;2.05;100.00;100355.53;5082439;28;20028;-95
2022/12/11 10:20:25;;;;;;;;;;;;;;;3.42;100.00;100522.22;5095990;28;20119;-96
2022/12/11 10:23:14;;;;;;;4.20;1.60;;;;;;;2.23;100.00;100344.19;5094085;28;19921;-95
2022/12/11 10:25:57;;;;;;;7.10;1.75;;;;;;;3.02;100.00;100513.16;5095438;28;20091;-96
2022/12/11 10:28:41;;;;;;;5.43;1.40;;;;;;;2.71;100.00;100455.72;5095411;28;20029;-94
2022/12/11 10:31:57;;;;;;;3.50;1.60;;;;;;;2.68;100.00;100431.63;5094758;28;20052;-93
2022/12/11 10:35:00;;;;;;;6.60;1.73;;;;;;;2.51;100.00;100395.59;5094685;28;20043;-96
2022/12/11 10:37:43;;;;;;;5.07;1.90;;;;;;;2.55;100.00;100398.16;5095243;28;20062;-95
2022/12/11 10:40:24;;;;;;;5.88;1.70;;;;;;;2.73;100.00;100433.28;5109251;28;20052;-94
2022/12/11 10:43:06;;;;;;;5.20;1.63;;;;;;;2.04;100.00;100351.25;5098380;28;20063;-94
2022/12/11 10:45:54;;;;;;;3.55;1.73;;;;;;;3.31;100.00;100505.94;5083318;28;20116;-95
2022/12/11 10:48:54;;;;;;;5.25;1.75;;;;;;;2.14;100.00;100329.63;5097618;28;20020;-93
2022/12/11 10:51:36;;;;;;;4.15;1.60;;;;;;;2.68;100.00;100405.78;5098642;28;20028;-96
2022/12/11 10:54:42;;;;;;;4.10;1.52;;;;;;;2.56;100.00;100374.00;5098108;28;20036;-95
2022/12/11 10:57:42;;;;;;;3.63;2.00;;;;;;;2.48;100.00;100357.72;5099845;28;20127;-96
2022/12/11 11:00:38;;;;;;;4.78;1.80;;;;;;;3.38;100.00;100494.66;5099536;28;20040;-94
2022/12/11 11:03:28;;;;;;;3.25;1.60;;;;;;;2.66;100.00;100396.31;5097960;28;20049;-88
2022/12/11 11:06:19;;;;;;;4.63;1.42;;;;;;;2.13;100.00;100315.00;5097785;28;20048;-93
2022/12/11 11:09:01;;;;;;;6.93;2.33;;;;;;;2.22;100.00;100319.25;5097628;28;20071;-93
2022/12/11 11:11:37;;;;;;;5.22;1.60;;;;;;;2.85;100.00;100432.28;5098649;28;20062;-93
2022/12/11 11:14:24;;;;;;;6.13;1.73;;;;;;;3.22;100.00;100493.97;5083558;28;20050;-94
2022/12/11 11:17:05;;;;;;;5.30;1.67;;;;;;;2.37;100.00;100357.81;5097559;28;20497;-93
2022/12/11 11:19:47;;;;;;;5.20;1.95;;;;;;;2.11;100.00;100306.44;5081686;28;20048;-92
2022/12/11 11:22:18;;;;;;;3.80;1.50;;;;;;;3.23;100.00;100475.00;5089495;28;20146;-90
2022/12/11 11:24:54;;;;;;;5.18;1.65;;;;;;;2.91;100.00;100393.44;5085165;28;20048;-88
2022/12/11 11:27:42;;;;;;;4.80;1.70;;;;;;;3.35;100.00;100468.81;5084701;28;20056;-89
2022/12/11 11:30:20;;;;;;;4.82;1.75;;;;;;;3.01;100.00;100412.28;5083679;28;20052;-90
2022/12/11 11:32:51;;;;;;;6.07;2.03;;;;;;;3.27;100.00;100444.75;5086784;28;20368;-90
2022/12/11 11:35:21;;;;;;;4.00;1.48;;;;;;;3.29;100.00;100445.59;5075934;28;20055;-89
2022/12/11 11:38:16;;;;;;;5.53;1.95;;;;;;;3.41;100.00;100429.91;5103171;28;20060;-89
2022/12/11 11:40:57;;;;;;;8.07;1.90;;;;;;;2.94;100.00;100377.91;5080768;28;20059;-89
2022/12/11 11:43:42;;;;;;;6.05;1.98;;;;;;;3.26;100.00;100410.28;5086566;28;20510;-89
2022/12/11 11:46:11;;;;;;;7.35;1.83;;;;;;;3.51;100.00;100423.75;5086341;28;20052;-89
2022/12/11 11:48:44;;;;;;;3.97;1.48;;;;;;;3.65;100.00;100448.56;5092060;28;20045;-89
2022/12/11 11:51:18;;;;;;;6.55;1.73;;;;;;;3.56;100.00;100428.84;5087646;28;20053;-87
2022/12/11 11:53:50;;;;;;;7.03;1.70;;;;;;;3.73;100.00;100447.59;5082669;28;20555;-88
2022/12/11 11:56:44;;;;;;;5.65;2.10;;;;;;;3.63;100.00;100452.91;5083407;28;20033;-88
2022/12/11 11:59:37;;;;;;;7.63;2.58;;;;;;;3.48;100.00;100384.94;5078943;28;20064;-88
2022/12/11 12:02:14;;;;;;;3.50;1.50;;;;;;;3.73;100.00;100400.97;5081850;28;20137;-88
2022/12/11 12:04:42;;;;;;;6.13;1.70;;;;;;;3.90;100.00;100444.78;5076708;28;20308;-89
2022/12/11 12:07:36;;;;;;;3.50;1.55;;;;;;;3.98;100.00;100444.66;5084996;28;20079;-87